KNGU

Norfolk NS (Chambers Field) Airport

Norfolk, Virginia, USA
METAR KNGU 211959Z 07003KT 10SM FEW200 FEW280 17/03 A3019 RMK AO2 SLP223 T01720028 $
Observed Flight Rules
Jan-21 @ 19:59 UTC (28 minutes ago) Visual Flight Rules
Wind Visibility Clouds
70° at 3 knots 10 miles
  • Few at 20,000' AGL
  • Few at 28,000' AGL
Temperatures Readings
Current 17°C / 63°F
Dewpoint 3°C / 37°F
Humidity 39%
Altimeter 30.19" Hg
Pressure 1022.3 hPa
Elevation 5
METAR KNGU 211959Z 07003KT 10SM FEW200 FEW280 17/03 A3019 RMK AO2 SLP223 T01720028 $
Observed Flight Rules
Jan-21 @ 19:59 UTC
(28 minutes ago)
VFR
Wind Visibility
70° at 3 knots 10 miles
Clouds
  • Few at 20,000' AGL
  • Few at 28,000' AGL
Temperature Dewpoint
17°C / 63°F 3°C / 37°F
Humidity Altimeter Pressure
39% 30.19" Hg 1022.3 hPa